Time,TemperatureF,DewpointF,PressureIn,WindDirection,WindDirectionDegrees,WindSpeedMPH,WindSpeedGustMPH,Humidity,HourlyPrecipIn,Conditions,Clouds,dailyrainin,SoftwareType,DateUTC
2013-04-28 00:01:00,45.3,39.2,30.07,West,268,0.0,0.0,79,0.00,,,0.00,meteohub,2013-04-28 04:01:00,
2013-04-28 00:02:00,45.1,38.7,30.07,West,268,0.0,0.0,78,0.00,,,0.00,meteohub,2013-04-28 04:02:00,
2013-04-28 00:07:00,44.8,39.0,30.07,West,268,0.0,0.0,80,0.00,,,0.00,meteohub,2013-04-28 04:07:00,
2013-04-28 00:12:00,44.2,38.1,30.07,West,268,0.0,0.0,79,0.00,,,0.00,meteohub,2013-04-28 04:12:00,
2013-04-28 00:17:00,43.9,38.1,30.07,West,268,0.0,0.0,80,0.00,,,0.00,meteohub,2013-04-28 04:17:00,
2013-04-28 00:22:00,43.5,37.8,30.07,West,268,0.0,0.0,80,0.00,,,0.00,meteohub,2013-04-28 04:22:00,
2013-04-28 00:27:00,43.2,37.8,30.06,West,268,0.0,0.0,81,0.00,,,0.00,meteohub,2013-04-28 04:27:00,
2013-04-28 00:32:00,43.2,38.7,30.06,West,268,0.0,0.0,84,0.00,,,0.00,meteohub,2013-04-28 04:32:00,
2013-04-28 00:37:00,43.2,39.0,30.06,SSE,152,1.0,0.0,85,0.00,,,0.00,meteohub,2013-04-28 04:37:00,
2013-04-28 00:42:00,43.0,38.5,30.06,SSE,154,0.0,1.0,84,0.00,,,0.00,meteohub,2013-04-28 04:42:00,
2013-04-28 00:47:00,42.8,38.7,30.06,SSE,154,0.0,1.0,85,0.00,,,0.00,meteohub,2013-04-28 04:47:00,
2013-04-28 00:52:00,42.6,38.7,30.06,SSE,154,0.0,1.0,86,0.00,,,0.00,meteohub,2013-04-28 04:52:00,
2013-04-28 00:57:00,42.6,38.7,30.06,SSE,154,0.0,1.0,86,0.00,,,0.00,meteohub,2013-04-28 04:57:00,
2013-04-28 01:02:00,42.3,38.7,30.06,SSE,155,0.0,1.0,87,0.00,,,0.00,meteohub,2013-04-28 05:02:00,
2013-04-28 01:07:00,42.1,38.5,30.06,SSE,154,0.0,1.0,87,0.00,,,0.00,meteohub,2013-04-28 05:07:00,
2013-04-28 01:12:00,42.1,38.8,30.06,SSE,154,0.0,1.0,88,0.00,,,0.00,meteohub,2013-04-28 05:12:00,
2013-04-28 01:17:00,41.7,38.1,30.06,SSE,155,0.0,0.0,87,0.00,,,0.00,meteohub,2013-04-28 05:17:00,
2013-04-28 01:22:00,41.5,37.9,30.05,SSE,154,0.0,0.0,87,0.00,,,0.00,meteohub,2013-04-28 05:22:00,
2013-04-28 01:28:00,41.7,37.8,30.05,SSE,155,0.0,0.0,86,0.00,,,0.00,meteohub,2013-04-28 05:28:00,
2013-04-28 01:33:00,41.9,37.9,30.05,SSE,155,0.0,0.0,86,0.00,,,0.00,meteohub,2013-04-28 05:33:00,
2013-04-28 01:38:00,41.7,37.8,30.05,SSE,155,0.0,0.0,86,0.00,,,0.00,meteohub,2013-04-28 05:38:00,
2013-04-28 01:43:00,41.5,37.6,30.05,SSE,155,0.0,0.0,86,0.00,,,0.00,meteohub,2013-04-28 05:43:00,
2013-04-28 01:48:00,41.5,38.3,30.05,SSE,155,0.0,0.0,88,0.00,,,0.00,meteohub,2013-04-28 05:48:00,
2013-04-28 01:53:00,41.4,38.1,30.05,SSE,155,0.0,0.0,88,0.00,,,0.00,meteohub,2013-04-28 05:53:00,
2013-04-28 01:58:00,41.4,38.7,30.05,SSE,155,0.0,0.0,90,0.00,,,0.00,meteohub,2013-04-28 05:58:00,
2013-04-28 02:03:00,41.2,38.5,30.05,SSE,155,0.0,0.0,90,0.00,,,0.00,meteohub,2013-04-28 06:03:00,
2013-04-28 02:08:00,40.8,38.1,30.05,SSE,155,0.0,0.0,90,0.00,,,0.00,meteohub,2013-04-28 06:08:00,
2013-04-28 02:13:00,40.6,37.9,30.05,SE,146,0.0,0.0,90,0.00,,,0.00,meteohub,2013-04-28 06:13:00,
2013-04-28 02:18:00,40.5,37.8,30.04,East,91,0.0,1.0,90,0.00,,,0.00,meteohub,2013-04-28 06:18:00,
2013-04-28 02:23:00,40.3,37.6,30.04,East,91,0.0,1.0,90,0.00,,,0.00,meteohub,2013-04-28 06:23:00,
2013-04-28 02:28:00,40.1,37.8,30.04,East,95,0.0,1.0,91,0.00,,,0.00,meteohub,2013-04-28 06:28:00,
2013-04-28 02:33:00,39.9,37.6,30.04,East,96,0.0,1.0,91,0.00,,,0.00,meteohub,2013-04-28 06:33:00,
2013-04-28 02:38:00,39.9,37.6,30.03,East,95,0.0,1.0,91,0.00,,,0.00,meteohub,2013-04-28 06:38:00,
2013-04-28 02:43:00,39.9,37.6,30.03,East,95,0.0,1.0,91,0.00,,,0.00,meteohub,2013-04-28 06:43:00,
2013-04-28 02:48:00,39.7,37.4,30.03,East,95,0.0,1.0,91,0.00,,,0.00,meteohub,2013-04-28 06:48:00,
2013-04-28 02:53:00,39.7,37.4,30.03,ENE,70,0.0,1.0,91,0.00,,,0.00,meteohub,2013-04-28 06:53:00,
2013-04-28 02:58:00,39.6,37.2,30.03,ENE,70,0.0,0.0,91,0.00,,,0.00,meteohub,2013-04-28 06:58:00,
2013-04-28 03:03:00,39.6,37.2,30.03,ENE,70,0.0,0.0,91,0.00,,,0.00,meteohub,2013-04-28 07:03:00,
2013-04-28 03:08:00,39.4,37.0,30.03,ENE,70,0.0,0.0,91,0.00,,,0.00,meteohub,2013-04-28 07:08:00,
2013-04-28 03:13:00,39.2,36.9,30.03,ENE,70,0.0,0.0,91,0.00,,,0.00,meteohub,2013-04-28 07:13:00,
2013-04-28 03:18:00,39.0,36.9,30.02,ENE,70,0.0,1.0,92,0.00,,,0.00,meteohub,2013-04-28 07:18:00,
2013-04-28 03:23:00,38.8,36.7,30.02,ENE,70,0.0,1.0,92,0.00,,,0.00,meteohub,2013-04-28 07:23:00,
2013-04-28 03:28:00,38.7,36.5,30.02,ENE,70,0.0,1.0,92,0.00,,,0.00,meteohub,2013-04-28 07:28:00,
2013-04-28 03:33:00,38.7,36.9,30.02,ENE,77,0.0,1.0,93,0.00,,,0.00,meteohub,2013-04-28 07:33:00,
2013-04-28 03:38:00,38.7,36.9,30.02,ENE,77,0.0,1.0,93,0.00,,,0.00,meteohub,2013-04-28 07:38:00,
2013-04-28 03:43:00,38.7,36.9,30.02,ENE,77,0.0,1.0,93,0.00,,,0.00,meteohub,2013-04-28 07:43:00,
2013-04-28 03:48:00,38.5,36.7,30.02,ENE,77,0.0,1.0,93,0.00,,,0.00,meteohub,2013-04-28 07:48:00,
2013-04-28 03:53:00,38.5,36.7,30.02,ENE,77,0.0,1.0,93,0.00,,,0.00,meteohub,2013-04-28 07:53:00,
2013-04-28 03:58:00,38.5,36.9,30.02,ESE,116,0.0,1.0,94,0.00,,,0.00,meteohub,2013-04-28 07:58:00,
2013-04-28 04:03:00,38.5,36.9,30.02,ESE,116,0.0,1.0,94,0.00,,,0.00,meteohub,2013-04-28 08:03:00,
2013-04-28 04:08:00,38.3,36.5,30.02,ESE,122,0.0,1.0,93,0.00,,,0.00,meteohub,2013-04-28 08:08:00,
2013-04-28 04:13:00,38.1,36.3,30.02,ESE,122,0.0,1.0,93,0.00,,,0.00,meteohub,2013-04-28 08:13:00,
2013-04-28 04:18:00,38.3,36.5,30.02,ESE,122,0.0,0.0,93,0.00,,,0.00,meteohub,2013-04-28 08:18:00,
2013-04-28 04:23:00,38.1,36.3,30.01,ESE,122,0.0,0.0,93,0.00,,,0.00,meteohub,2013-04-28 08:23:00,
2013-04-28 04:28:00,38.3,36.7,30.01,ESE,122,0.0,0.0,94,0.00,,,0.00,meteohub,2013-04-28 08:28:00,
2013-04-28 04:33:00,38.3,36.5,30.01,ESE,122,0.0,0.0,93,0.00,,,0.00,meteohub,2013-04-28 08:33:00,
2013-04-28 04:38:00,38.3,36.5,30.01,ESE,122,0.0,0.0,93,0.00,,,0.00,meteohub,2013-04-28 08:38:00,
2013-04-28 04:43:00,38.1,36.0,30.01,ESE,122,0.0,0.0,92,0.00,,,0.00,meteohub,2013-04-28 08:43:00,
2013-04-28 04:49:00,37.9,35.8,30.01,ESE,122,0.0,0.0,92,0.00,,,0.00,meteohub,2013-04-28 08:49:00,
2013-04-28 04:53:00,37.8,35.6,30.01,SSE,162,0.0,0.0,92,0.00,,,0.00,meteohub,2013-04-28 08:53:00,
2013-04-28 04:59:00,37.8,35.6,30.00,SSE,157,0.0,0.0,92,0.00,,,0.00,meteohub,2013-04-28 08:59:00,
2013-04-28 05:04:00,37.6,35.4,30.00,SSE,157,0.0,0.0,92,0.00,,,0.00,meteohub,2013-04-28 09:04:00,
2013-04-28 05:09:00,37.4,35.2,30.00,SSE,157,0.0,0.0,92,0.00,,,0.00,meteohub,2013-04-28 09:09:00,
2013-04-28 05:14:00,37.2,35.1,30.00,SSE,157,0.0,0.0,92,0.00,,,0.00,meteohub,2013-04-28 09:14:00,
2013-04-28 05:19:00,37.0,34.9,30.00,SSE,157,0.0,0.0,92,0.00,,,0.00,meteohub,2013-04-28 09:19:00,
2013-04-28 05:24:00,37.0,35.2,30.00,SSE,157,0.0,0.0,93,0.00,,,0.00,meteohub,2013-04-28 09:24:00,
2013-04-28 05:29:00,37.0,35.2,30.00,SSE,157,0.0,0.0,93,0.00,,,0.00,meteohub,2013-04-28 09:29:00,
2013-04-28 05:34:00,37.0,35.2,30.00,SSE,157,0.0,0.0,93,0.00,,,0.00,meteohub,2013-04-28 09:34:00,
2013-04-28 05:39:00,36.9,35.1,30.00,SSE,157,0.0,0.0,93,0.00,,,0.00,meteohub,2013-04-28 09:39:00,
2013-04-28 05:44:00,36.9,35.2,30.00,SSE,157,0.0,0.0,94,0.00,,,0.00,meteohub,2013-04-28 09:44:00,
2013-04-28 05:49:00,36.9,35.2,30.00,SSE,157,0.0,0.0,94,0.00,,,0.00,meteohub,2013-04-28 09:49:00,
2013-04-28 05:54:00,36.7,34.9,30.00,SSE,157,0.0,0.0,93,0.00,,,0.00,meteohub,2013-04-28 09:54:00,
2013-04-28 05:59:00,36.5,34.7,30.00,SSE,157,0.0,0.0,93,0.00,,,0.00,meteohub,2013-04-28 09:59:00,
2013-04-28 06:04:00,36.5,34.7,30.00,SSE,157,0.0,0.0,93,0.00,,,0.00,meteohub,2013-04-28 10:04:00,
2013-04-28 06:09:00,36.5,34.9,30.00,SSE,157,0.0,0.0,94,0.00,,,0.00,meteohub,2013-04-28 10:09:00,
2013-04-28 06:14:00,36.5,34.9,30.00,SSE,157,0.0,0.0,94,0.00,,,0.00,meteohub,2013-04-28 10:14:00,
2013-04-28 06:19:00,36.3,34.7,30.00,SSE,157,0.0,0.0,94,0.00,,,0.00,meteohub,2013-04-28 10:19:00,
2013-04-28 06:24:00,36.3,34.7,30.00,SSE,157,0.0,0.0,94,0.00,,,0.00,meteohub,2013-04-28 10:24:00,
2013-04-28 06:29:00,36.3,34.7,30.00,SSE,157,0.0,0.0,94,0.00,,,0.00,meteohub,2013-04-28 10:29:00,
2013-04-28 06:34:00,36.3,34.7,30.00,ESE,112,0.0,0.0,94,0.00,,,0.00,meteohub,2013-04-28 10:34:00,
2013-04-28 06:39:00,36.5,34.9,30.00,ESE,112,0.0,0.0,94,0.00,,,0.00,meteohub,2013-04-28 10:39:00,
2013-04-28 06:44:00,37.0,35.8,30.00,ESE,112,0.0,0.0,95,0.00,,,0.00,meteohub,2013-04-28 10:44:00,
2013-04-28 06:49:00,37.8,36.1,30.00,East,89,0.0,0.0,94,0.00,,,0.00,meteohub,2013-04-28 10:49:00,
2013-04-28 06:54:00,38.1,36.3,30.00,East,89,0.0,0.0,93,0.00,,,0.00,meteohub,2013-04-28 10:54:00,
2013-04-28 06:59:00,38.1,36.0,30.00,East,89,0.0,0.0,92,0.00,,,0.00,meteohub,2013-04-28 10:59:00,
2013-04-28 07:04:00,38.7,36.3,30.00,SSE,150,0.0,0.0,91,0.00,,,0.00,meteohub,2013-04-28 11:04:00,
2013-04-28 07:09:00,39.9,37.6,30.00,ESE,115,1.0,0.0,91,0.00,,,0.00,meteohub,2013-04-28 11:09:00,
2013-04-28 07:14:00,41.4,38.1,30.00,South,178,0.0,1.0,88,0.00,,,0.00,meteohub,2013-04-28 11:14:00,
2013-04-28 07:19:00,43.2,39.0,30.00,South,174,2.0,2.0,85,0.00,,,0.00,meteohub,2013-04-28 11:19:00,
2013-04-28 07:25:00,45.5,39.7,30.00,WSW,241,0.0,2.0,80,0.00,,,0.00,meteohub,2013-04-28 11:25:00,
2013-04-28 07:30:00,46.9,39.7,30.00,WSW,250,1.0,3.0,76,0.00,,,0.00,meteohub,2013-04-28 11:30:00,
2013-04-28 07:35:00,48.4,40.1,30.00,SE,138,1.0,3.0,73,0.00,,,0.00,meteohub,2013-04-28 11:35:00,
2013-04-28 07:40:00,49.3,40.3,30.00,WSW,245,0.0,4.0,71,0.00,,,0.00,meteohub,2013-04-28 11:40:00,
2013-04-28 07:45:00,50.2,40.5,30.00,SW,229,1.0,4.0,69,0.00,,,0.00,meteohub,2013-04-28 11:45:00,
2013-04-28 07:50:00,50.9,40.3,29.99,South,171,3.0,4.0,67,0.00,,,0.00,meteohub,2013-04-28 11:50:00,
2013-04-28 07:55:00,51.4,40.5,29.99,WNW,285,1.0,5.0,66,0.00,,,0.00,meteohub,2013-04-28 11:55:00,
2013-04-28 08:00:00,51.8,40.5,29.99,East,82,0.0,5.0,65,0.00,,,0.00,meteohub,2013-04-28 12:00:00,
2013-04-28 08:05:00,52.3,40.5,29.99,South,188,2.0,5.0,64,0.00,,,0.00,meteohub,2013-04-28 12:05:00,
2013-04-28 08:10:00,52.9,40.6,30.00,WSW,246,0.0,4.0,63,0.00,,,0.00,meteohub,2013-04-28 12:10:00,
2013-04-28 08:15:00,53.2,40.6,30.00,South,172,2.0,3.0,62,0.00,,,0.00,meteohub,2013-04-28 12:15:00,
2013-04-28 08:20:00,54.0,40.8,30.00,SSE,155,0.0,4.0,61,0.00,,,0.00,meteohub,2013-04-28 12:20:00,
2013-04-28 08:25:00,54.5,40.5,30.00,SSE,160,1.0,6.0,59,0.00,,,0.00,meteohub,2013-04-28 12:25:00,
2013-04-28 08:30:00,54.9,40.8,30.00,SW,220,1.0,6.0,59,0.00,,,0.00,meteohub,2013-04-28 12:30:00,
2013-04-28 08:35:00,54.9,40.8,30.00,SSE,155,0.0,6.0,59,0.00,,,0.00,meteohub,2013-04-28 12:35:00,
2013-04-28 08:40:00,55.0,40.5,29.99,South,178,1.0,3.0,58,0.00,,,0.00,meteohub,2013-04-28 12:40:00,
2013-04-28 08:45:00,55.2,40.6,29.99,ENE,74,0.0,3.0,58,0.00,,,0.00,meteohub,2013-04-28 12:45:00,
2013-04-28 08:50:00,55.4,40.8,29.99,South,182,0.0,3.0,58,0.00,,,0.00,meteohub,2013-04-28 12:50:00,
2013-04-28 08:55:00,55.6,40.6,29.99,ESE,105,0.0,3.0,57,0.00,,,0.00,meteohub,2013-04-28 12:55:00,
2013-04-28 09:00:00,55.8,40.8,29.99,ENE,61,0.0,2.0,57,0.00,,,0.00,meteohub,2013-04-28 13:00:00,
2013-04-28 09:05:00,56.1,40.6,29.99,SSE,160,0.0,2.0,56,0.00,,,0.00,meteohub,2013-04-28 13:05:00,
2013-04-28 09:10:00,56.5,41.4,29.99,South,181,0.0,1.0,57,0.00,,,0.00,meteohub,2013-04-28 13:10:00,
2013-04-28 09:15:00,56.8,40.8,29.99,South,185,0.0,1.0,55,0.00,,,0.00,meteohub,2013-04-28 13:15:00,
2013-04-28 09:20:00,57.4,41.4,29.99,East,95,0.0,1.0,55,0.00,,,0.00,meteohub,2013-04-28 13:20:00,
2013-04-28 09:25:00,57.6,40.6,29.98,East,93,0.0,1.0,53,0.00,,,0.00,meteohub,2013-04-28 13:25:00,
2013-04-28 09:30:00,57.7,40.6,29.98,SSE,162,0.0,1.0,53,0.00,,,0.00,meteohub,2013-04-28 13:30:00,
2013-04-28 09:35:00,57.9,39.9,29.98,SSE,162,0.0,1.0,51,0.00,,,0.00,meteohub,2013-04-28 13:35:00,
2013-04-28 09:40:00,58.3,40.8,29.98,ESE,110,0.0,1.0,52,0.00,,,0.00,meteohub,2013-04-28 13:40:00,
2013-04-28 09:45:00,58.6,40.6,29.98,ESE,110,0.0,1.0,51,0.00,,,0.00,meteohub,2013-04-28 13:45:00,
2013-04-28 09:50:00,59.2,40.6,29.98,ESE,117,0.0,1.0,50,0.00,,,0.00,meteohub,2013-04-28 13:50:00,
2013-04-28 09:55:00,59.5,40.8,29.98,SSW,210,0.0,1.0,50,0.00,,,0.00,meteohub,2013-04-28 13:55:00,
2013-04-28 10:00:00,59.9,41.2,29.98,SE,140,1.0,1.0,50,0.00,,,0.00,meteohub,2013-04-28 14:00:00,
2013-04-28 10:05:00,60.1,40.3,29.98,South,176,1.0,2.0,48,0.00,,,0.00,meteohub,2013-04-28 14:05:00,
2013-04-28 10:10:00,60.1,40.3,29.98,ESE,112,0.0,3.0,48,0.00,,,0.00,meteohub,2013-04-28 14:10:00,
2013-04-28 10:16:00,60.3,41.0,29.98,ENE,72,0.0,3.0,49,0.00,,,0.00,meteohub,2013-04-28 14:16:00,
2013-04-28 10:21:00,60.6,40.8,29.98,SSE,154,2.0,3.0,48,0.00,,,0.00,meteohub,2013-04-28 14:21:00,
2013-04-28 10:26:00,60.8,39.9,29.97,West,272,1.0,3.0,46,0.00,,,0.00,meteohub,2013-04-28 14:26:00,
2013-04-28 10:31:00,60.8,39.9,29.97,East,91,0.0,3.0,46,0.00,,,0.00,meteohub,2013-04-28 14:31:00,
2013-04-28 10:36:00,61.0,40.6,29.97,SSW,210,0.0,3.0,47,0.00,,,0.00,meteohub,2013-04-28 14:36:00,
2013-04-28 10:41:00,61.2,40.8,29.96,SSW,212,0.0,3.0,47,0.00,,,0.00,meteohub,2013-04-28 14:41:00,
2013-04-28 10:46:00,61.5,39.9,29.96,SW,214,1.0,2.0,45,0.00,,,0.00,meteohub,2013-04-28 14:46:00,
2013-04-28 10:51:00,61.9,40.8,29.96,ENE,72,0.0,2.0,46,0.00,,,0.00,meteohub,2013-04-28 14:51:00,
2013-04-28 10:56:00,62.6,41.0,29.96,East,88,0.0,2.0,45,0.00,,,0.00,meteohub,2013-04-28 14:56:00,
2013-04-28 11:01:00,63.1,40.8,29.96,ENE,78,0.0,2.0,44,0.00,,,0.00,meteohub,2013-04-28 15:01:00,
2013-04-28 11:06:00,63.3,41.0,29.96,ENE,72,0.0,1.0,44,0.00,,,0.00,meteohub,2013-04-28 15:06:00,
2013-04-28 11:11:00,63.7,40.8,29.96,SSE,162,0.0,1.0,43,0.00,,,0.00,meteohub,2013-04-28 15:11:00,
2013-04-28 11:16:00,63.7,40.1,29.95,East,91,0.0,1.0,42,0.00,,,0.00,meteohub,2013-04-28 15:16:00,
2013-04-28 11:21:00,63.9,40.3,29.95,SSE,162,0.0,1.0,42,0.00,,,0.00,meteohub,2013-04-28 15:21:00,
2013-04-28 11:26:00,63.9,41.0,29.95,SSE,166,0.0,2.0,43,0.00,,,0.00,meteohub,2013-04-28 15:26:00,
2013-04-28 11:31:00,63.9,41.0,29.94,SSE,165,1.0,2.0,43,0.00,,,0.00,meteohub,2013-04-28 15:31:00,
2013-04-28 11:36:00,64.0,40.5,29.94,ESE,110,0.0,2.0,42,0.00,,,0.00,meteohub,2013-04-28 15:36:00,
2013-04-28 11:41:00,64.2,41.2,29.94,ESE,117,0.0,1.0,43,0.00,,,0.00,meteohub,2013-04-28 15:41:00,
2013-04-28 11:46:00,64.9,41.4,29.94,SE,133,0.0,1.0,42,0.00,,,0.00,meteohub,2013-04-28 15:46:00,
2013-04-28 11:51:00,65.7,40.6,29.94,East,85,0.0,1.0,40,0.00,,,0.00,meteohub,2013-04-28 15:51:00,
2013-04-28 11:56:00,66.0,41.0,29.94,SSE,147,0.0,3.0,40,0.00,,,0.00,meteohub,2013-04-28 15:56:00,
2013-04-28 12:01:00,66.4,40.6,29.93,East,99,0.0,3.0,39,0.00,,,0.00,meteohub,2013-04-28 16:01:00,
2013-04-28 12:06:00,66.9,39.0,29.93,East,85,1.0,3.0,36,0.00,,,0.00,meteohub,2013-04-28 16:06:00,
2013-04-28 12:11:00,67.3,40.1,29.93,SE,138,0.0,4.0,37,0.00,,,0.00,meteohub,2013-04-28 16:11:00,
2013-04-28 12:16:00,67.8,40.6,29.92,South,175,0.0,4.0,37,0.00,,,0.00,meteohub,2013-04-28 16:16:00,
2013-04-28 12:21:00,68.4,40.3,29.92,East,83,1.0,4.0,36,0.00,,,0.00,meteohub,2013-04-28 16:21:00,
2013-04-28 12:26:00,68.4,39.6,29.92,South,176,1.0,2.0,35,0.00,,,0.00,meteohub,2013-04-28 16:26:00,
2013-04-28 12:31:00,68.7,39.9,29.92,SW,223,0.0,4.0,35,0.00,,,0.00,meteohub,2013-04-28 16:31:00,
2013-04-28 12:36:00,68.7,38.5,29.92,NE,55,1.0,4.0,33,0.00,,,0.00,meteohub,2013-04-28 16:36:00,
2013-04-28 12:41:00,68.4,38.1,29.92,SE,136,0.0,4.0,33,0.00,,,0.00,meteohub,2013-04-28 16:41:00,
2013-04-28 12:46:00,68.4,37.4,29.92,ENE,70,2.0,3.0,32,0.00,,,0.00,meteohub,2013-04-28 16:46:00,
2013-04-28 12:52:00,68.0,37.8,29.91,ESE,106,1.0,6.0,33,0.00,,,0.00,meteohub,2013-04-28 16:52:00,
2013-04-28 12:57:00,67.6,39.0,29.91,East,83,0.0,6.0,35,0.00,,,0.00,meteohub,2013-04-28 16:57:00,
2013-04-28 13:02:00,67.3,38.7,29.91,ENE,70,0.0,6.0,35,0.00,,,0.00,meteohub,2013-04-28 17:02:00,
2013-04-28 13:07:00,66.7,39.0,29.91,East,99,0.0,4.0,36,0.00,,,0.00,meteohub,2013-04-28 17:07:00,
2013-04-28 13:12:00,66.7,41.0,29.90,East,100,0.0,2.0,39,0.00,,,0.00,meteohub,2013-04-28 17:12:00,
2013-04-28 13:17:00,66.7,39.0,29.90,SSE,155,0.0,0.0,36,0.00,,,0.00,meteohub,2013-04-28 17:17:00,
2013-04-28 13:22:00,66.7,39.6,29.90,SSE,147,0.0,0.0,37,0.00,,,0.00,meteohub,2013-04-28 17:22:00,
2013-04-28 13:27:00,67.3,40.8,29.90,South,169,0.0,0.0,38,0.00,,,0.00,meteohub,2013-04-28 17:27:00,
2013-04-28 13:32:00,67.8,39.2,29.90,SSW,199,0.0,1.0,35,0.00,,,0.00,meteohub,2013-04-28 17:32:00,
2013-04-28 13:37:00,68.2,38.7,29.90,NNE,22,0.0,2.0,34,0.00,,,0.00,meteohub,2013-04-28 17:37:00,
2013-04-28 13:42:00,68.5,38.3,29.89,East,99,2.0,2.0,33,0.00,,,0.00,meteohub,2013-04-28 17:42:00,
2013-04-28 13:47:00,68.9,38.7,29.89,NE,54,1.0,2.0,33,0.00,,,0.00,meteohub,2013-04-28 17:47:00,
2013-04-28 13:52:00,69.4,39.0,29.89,SE,124,2.0,3.0,33,0.00,,,0.00,meteohub,2013-04-28 17:52:00,
2013-04-28 13:57:00,70.0,40.3,29.89,ENE,58,1.0,5.0,34,0.00,,,0.00,meteohub,2013-04-28 17:57:00,
2013-04-28 14:02:00,70.2,39.7,29.88,WSW,252,1.0,5.0,33,0.00,,,0.00,meteohub,2013-04-28 18:02:00,
2013-04-28 14:07:00,70.2,37.2,29.88,NNW,328,6.0,6.0,30,0.00,,,0.00,meteohub,2013-04-28 18:07:00,
2013-04-28 14:12:00,70.9,40.3,29.88,East,85,0.0,7.0,33,0.00,,,0.00,meteohub,2013-04-28 18:12:00,
2013-04-28 14:17:00,71.4,39.2,29.87,SW,232,1.0,7.0,31,0.00,,,0.00,meteohub,2013-04-28 18:17:00,
2013-04-28 14:22:00,70.9,37.0,29.87,East,87,3.0,7.0,29,0.00,,,0.00,meteohub,2013-04-28 18:22:00,
2013-04-28 14:27:00,70.3,38.3,29.87,South,186,0.0,6.0,31,0.00,,,0.00,meteohub,2013-04-28 18:27:00,
2013-04-28 14:32:00,70.0,37.9,29.87,WNW,302,2.0,6.0,31,0.00,,,0.00,meteohub,2013-04-28 18:32:00,
2013-04-28 14:37:00,69.6,38.5,29.87,West,265,1.0,6.0,32,0.00,,,0.00,meteohub,2013-04-28 18:37:00,
2013-04-28 14:42:00,69.3,38.1,29.87,NE,51,3.0,4.0,32,0.00,,,0.00,meteohub,2013-04-28 18:42:00,
2013-04-28 14:47:00,69.4,39.0,29.87,NE,51,2.0,8.0,33,0.00,,,0.00,meteohub,2013-04-28 18:47:00,
2013-04-28 14:52:00,70.0,39.6,29.86,ESE,112,1.0,8.0,33,0.00,,,0.00,meteohub,2013-04-28 18:52:00,
2013-04-28 14:57:00,69.3,38.1,29.86,WNW,282,2.0,8.0,32,0.00,,,0.00,meteohub,2013-04-28 18:57:00,
2013-04-28 15:02:00,69.3,38.1,29.86,WSW,245,1.0,5.0,32,0.00,,,0.00,meteohub,2013-04-28 19:02:00,
2013-04-28 15:07:00,69.3,38.8,29.86,SE,145,0.0,5.0,33,0.00,,,0.00,meteohub,2013-04-28 19:07:00,
2013-04-28 15:12:00,68.9,38.7,29.86,SW,228,2.0,5.0,33,0.00,,,0.00,meteohub,2013-04-28 19:12:00,
2013-04-28 15:17:00,69.1,37.9,29.85,SSW,197,2.0,6.0,32,0.00,,,0.00,meteohub,2013-04-28 19:17:00,
2013-04-28 15:22:00,70.3,38.3,29.85,SE,145,5.0,6.0,31,0.00,,,0.00,meteohub,2013-04-28 19:22:00,
2013-04-28 15:27:00,71.2,38.3,29.85,SSE,164,2.0,7.0,30,0.00,,,0.00,meteohub,2013-04-28 19:27:00,
2013-04-28 15:32:00,72.3,39.9,29.84,ESE,113,3.0,9.0,31,0.00,,,0.00,meteohub,2013-04-28 19:32:00,
2013-04-28 15:37:00,73.2,39.9,29.84,South,169,7.0,9.0,30,0.00,,,0.00,meteohub,2013-04-28 19:37:00,
2013-04-28 15:42:00,73.6,38.5,29.83,East,81,2.0,9.0,28,0.00,,,0.00,meteohub,2013-04-28 19:42:00,
2013-04-28 15:47:00,73.6,36.5,29.83,NE,53,1.0,8.0,26,0.00,,,0.00,meteohub,2013-04-28 19:47:00,
2013-04-28 15:52:00,73.6,39.4,29.83,NW,307,1.0,8.0,29,0.00,,,0.00,meteohub,2013-04-28 19:52:00,
2013-04-28 15:57:00,74.3,38.1,29.83,NE,52,2.0,8.0,27,0.00,,,0.00,meteohub,2013-04-28 19:57:00,
2013-04-28 16:02:00,74.7,39.4,29.83,East,85,1.0,6.0,28,0.00,,,0.00,meteohub,2013-04-28 20:02:00,
2013-04-28 16:07:00,74.8,38.7,29.82,SSW,203,1.0,6.0,27,0.00,,,0.00,meteohub,2013-04-28 20:07:00,
2013-04-28 16:12:00,75.0,38.8,29.82,ENE,70,1.0,8.0,27,0.00,,,0.00,meteohub,2013-04-28 20:12:00,
2013-04-28 16:17:00,75.0,37.8,29.82,ESE,119,0.0,8.0,26,0.00,,,0.00,meteohub,2013-04-28 20:17:00,
2013-04-28 16:22:00,75.9,38.7,29.81,East,96,1.0,8.0,26,0.00,,,0.00,meteohub,2013-04-28 20:22:00,
2013-04-28 16:27:00,75.6,39.2,29.81,SSE,152,1.0,4.0,27,0.00,,,0.00,meteohub,2013-04-28 20:27:00,
2013-04-28 16:32:00,76.5,41.0,29.81,SSE,167,0.0,3.0,28,0.00,,,0.00,meteohub,2013-04-28 20:32:00,
2013-04-28 16:37:00,76.1,39.7,29.81,SW,226,1.0,3.0,27,0.00,,,0.00,meteohub,2013-04-28 20:37:00,
2013-04-28 16:42:00,75.4,40.1,29.81,WSW,245,1.0,2.0,28,0.00,,,0.00,meteohub,2013-04-28 20:42:00,
2013-04-28 16:47:00,74.8,40.5,29.81,ENE,58,7.0,7.0,29,0.00,,,0.00,meteohub,2013-04-28 20:47:00,
2013-04-28 16:52:00,74.8,41.4,29.81,East,81,5.0,9.0,30,0.00,,,0.00,meteohub,2013-04-28 20:52:00,
2013-04-28 16:57:00,75.4,41.7,29.81,SSE,152,1.0,10.0,30,0.00,,,0.00,meteohub,2013-04-28 20:57:00,
2013-04-28 17:02:00,76.3,42.6,29.81,East,84,2.0,10.0,30,0.00,,,0.00,meteohub,2013-04-28 21:02:00,
2013-04-28 17:07:00,75.6,41.9,29.81,South,186,9.0,10.0,30,0.00,,,0.00,meteohub,2013-04-28 21:07:00,
2013-04-28 17:12:00,74.3,40.8,29.80,SW,224,4.0,14.0,30,0.00,,,0.00,meteohub,2013-04-28 21:12:00,
2013-04-28 17:17:00,73.6,41.0,29.80,SW,227,1.0,14.0,31,0.00,,,0.00,meteohub,2013-04-28 21:17:00,
2013-04-28 17:22:00,73.6,41.9,29.80,West,280,1.0,14.0,32,0.00,,,0.00,meteohub,2013-04-28 21:22:00,
2013-04-28 17:27:00,74.7,43.7,29.80,ENE,61,2.0,11.0,33,0.00,,,0.00,meteohub,2013-04-28 21:27:00,
2013-04-28 17:32:00,74.8,43.9,29.80,South,169,3.0,11.0,33,0.00,,,0.00,meteohub,2013-04-28 21:32:00,
2013-04-28 17:37:00,74.8,43.9,29.80,East,92,2.0,8.0,33,0.00,,,0.00,meteohub,2013-04-28 21:37:00,
2013-04-28 17:42:00,74.5,44.2,29.79,SSW,205,11.0,11.0,34,0.00,,,0.00,meteohub,2013-04-28 21:42:00,
2013-04-28 17:47:00,73.2,44.6,29.79,South,176,7.0,12.0,36,0.00,,,0.00,meteohub,2013-04-28 21:47:00,
2013-04-28 17:52:00,72.3,45.3,29.79,ENE,70,9.0,12.0,38,0.00,,,0.00,meteohub,2013-04-28 21:52:00,
2013-04-28 17:57:00,71.6,45.3,29.79,ESE,119,3.0,12.0,39,0.00,,,0.00,meteohub,2013-04-28 21:57:00,
2013-04-28 18:02:00,71.1,45.5,29.79,SSE,163,3.0,12.0,40,0.00,,,0.00,meteohub,2013-04-28 22:02:00,
2013-04-28 18:07:00,70.9,46.0,29.80,SSE,160,8.0,11.0,41,0.00,,,0.00,meteohub,2013-04-28 22:07:00,
2013-04-28 18:12:00,70.7,46.4,29.80,East,93,3.0,10.0,42,0.00,,,0.00,meteohub,2013-04-28 22:12:00,
2013-04-28 18:17:00,70.5,46.4,29.80,North,3,1.0,10.0,42,0.00,,,0.00,meteohub,2013-04-28 22:17:00,
2013-04-28 18:22:00,70.2,46.6,29.80,SW,218,2.0,8.0,43,0.00,,,0.00,meteohub,2013-04-28 22:22:00,
2013-04-28 18:27:00,70.2,47.3,29.80,SW,214,2.0,8.0,44,0.00,,,0.00,meteohub,2013-04-28 22:27:00,
2013-04-28 18:32:00,70.0,47.1,29.80,South,169,1.0,8.0,44,0.00,,,0.00,meteohub,2013-04-28 22:32:00,
2013-04-28 18:37:00,70.0,47.7,29.80,NE,56,4.0,8.0,45,0.00,,,0.00,meteohub,2013-04-28 22:37:00,
2013-04-28 18:42:00,69.8,46.9,29.79,SSW,206,2.0,9.0,44,0.00,,,0.00,meteohub,2013-04-28 22:42:00,
2013-04-28 18:47:00,69.6,47.3,29.79,South,190,4.0,9.0,45,0.00,,,0.00,meteohub,2013-04-28 22:47:00,
2013-04-28 18:52:00,69.6,47.3,29.79,East,83,2.0,5.0,45,0.00,,,0.00,meteohub,2013-04-28 22:52:00,
2013-04-28 18:57:00,70.0,47.7,29.79,SSE,152,2.0,7.0,45,0.00,,,0.00,meteohub,2013-04-28 22:57:00,
2013-04-28 19:02:00,70.5,48.2,29.79,SSW,200,2.0,7.0,45,0.00,,,0.00,meteohub,2013-04-28 23:02:00,
2013-04-28 19:07:00,71.1,48.0,29.79,NW,316,2.0,7.0,44,0.00,,,0.00,meteohub,2013-04-28 23:07:00,
2013-04-28 19:12:00,70.9,47.3,29.79,SE,131,4.0,12.0,43,0.00,,,0.00,meteohub,2013-04-28 23:12:00,
2013-04-28 19:17:00,70.3,47.5,29.79,SW,214,1.0,12.0,44,0.00,,,0.00,meteohub,2013-04-28 23:17:00,
2013-04-28 19:22:00,69.8,46.9,29.79,SW,224,2.0,12.0,44,0.00,,,0.00,meteohub,2013-04-28 23:22:00,
2013-04-28 19:27:00,69.4,47.1,29.79,WNW,297,2.0,11.0,45,0.00,,,0.00,meteohub,2013-04-28 23:27:00,
2013-04-28 19:32:00,69.3,46.9,29.80,SW,218,2.0,10.0,45,0.00,,,0.00,meteohub,2013-04-28 23:32:00,
2013-04-28 19:37:00,68.5,46.9,29.80,East,81,0.0,10.0,46,0.00,,,0.00,meteohub,2013-04-28 23:37:00,
2013-04-28 19:42:00,68.2,47.1,29.80,ENE,67,1.0,9.0,47,0.00,,,0.00,meteohub,2013-04-28 23:42:00,
2013-04-28 19:47:00,68.2,47.1,29.79,SE,138,3.0,6.0,47,0.00,,,0.00,meteohub,2013-04-28 23:47:00,
2013-04-28 19:52:00,67.8,46.9,29.79,SSW,202,1.0,8.0,47,0.00,,,0.00,meteohub,2013-04-28 23:52:00,
2013-04-28 19:57:00,67.5,47.1,29.80,ENE,75,2.0,8.0,48,0.00,,,0.00,meteohub,2013-04-28 23:57:00,
2013-04-28 20:02:00,66.9,47.1,29.79,SW,231,1.0,9.0,49,0.00,,,0.00,meteohub,2013-04-29 00:02:00,
2013-04-28 20:07:00,66.4,47.1,29.80,North,355,2.0,9.0,50,0.00,,,0.00,meteohub,2013-04-29 00:07:00,
2013-04-28 20:12:00,65.8,47.1,29.80,West,259,3.0,9.0,51,0.00,,,0.00,meteohub,2013-04-29 00:12:00,
2013-04-28 20:17:00,65.5,46.9,29.80,SE,133,4.0,7.0,51,0.00,,,0.00,meteohub,2013-04-29 00:17:00,
2013-04-28 20:22:00,65.1,47.1,29.80,SSW,199,0.0,7.0,52,0.00,,,0.00,meteohub,2013-04-29 00:22:00,
2013-04-28 20:27:00,64.6,47.1,29.80,East,95,1.0,7.0,53,0.00,,,0.00,meteohub,2013-04-29 00:27:00,
2013-04-28 20:32:00,64.2,46.8,29.81,East,95,0.0,7.0,53,0.00,,,0.00,meteohub,2013-04-29 00:32:00,
2013-04-28 20:37:00,63.7,46.8,29.81,SSW,196,1.0,6.0,54,0.00,,,0.00,meteohub,2013-04-29 00:37:00,
2013-04-28 20:42:00,63.5,46.6,29.81,South,188,1.0,6.0,54,0.00,,,0.00,meteohub,2013-04-29 00:42:00,
2013-04-28 20:47:00,63.3,46.4,29.81,SSE,154,1.0,5.0,54,0.00,,,0.00,meteohub,2013-04-29 00:47:00,
2013-04-28 20:52:00,62.8,46.4,29.81,SE,132,1.0,5.0,55,0.00,,,0.00,meteohub,2013-04-29 00:52:00,
2013-04-28 20:57:00,62.2,46.4,29.81,SE,145,0.0,7.0,56,0.00,,,0.00,meteohub,2013-04-29 00:57:00,
2013-04-28 21:02:00,61.9,46.0,29.81,NE,53,1.0,7.0,56,0.00,,,0.00,meteohub,2013-04-29 01:02:00,
2013-04-28 21:07:00,61.3,46.0,29.81,SE,138,0.0,7.0,57,0.00,,,0.00,meteohub,2013-04-29 01:07:00,
2013-04-28 21:12:00,60.8,45.9,29.81,ENE,60,1.0,4.0,58,0.00,,,0.00,meteohub,2013-04-29 01:12:00,
2013-04-28 21:17:00,60.3,45.9,29.81,ESE,120,1.0,4.0,59,0.00,,,0.00,meteohub,2013-04-29 01:17:00,
2013-04-28 21:22:00,60.1,45.7,29.81,East,82,0.0,6.0,59,0.00,,,0.00,meteohub,2013-04-29 01:22:00,
2013-04-28 21:27:00,59.7,45.9,29.82,SE,145,2.0,6.0,60,0.00,,,0.00,meteohub,2013-04-29 01:27:00,
2013-04-28 21:32:00,59.7,45.9,29.82,NE,37,1.0,7.0,60,0.00,,,0.00,meteohub,2013-04-29 01:32:00,
2013-04-28 21:37:00,59.7,46.2,29.82,ESE,116,3.0,7.0,61,0.00,,,0.00,meteohub,2013-04-29 01:37:00,
2013-04-28 21:42:00,59.7,46.8,29.82,ESE,109,2.0,7.0,62,0.00,,,0.00,meteohub,2013-04-29 01:42:00,
2013-04-28 21:47:00,59.5,46.6,29.82,East,93,2.0,6.0,62,0.00,,,0.00,meteohub,2013-04-29 01:47:00,
2013-04-28 21:52:00,59.4,46.8,29.82,ESE,107,0.0,5.0,63,0.00,,,0.00,meteohub,2013-04-29 01:52:00,
2013-04-28 21:57:00,59.0,46.8,29.82,East,92,0.0,5.0,64,0.00,,,0.00,meteohub,2013-04-29 01:57:00,
2013-04-28 22:02:00,58.6,46.6,29.82,ESE,109,0.0,3.0,64,0.00,,,0.00,meteohub,2013-04-29 02:02:00,
2013-04-28 22:07:00,58.3,46.2,29.82,ESE,109,0.0,1.0,64,0.00,,,0.00,meteohub,2013-04-29 02:07:00,
2013-04-28 22:12:00,57.6,45.1,29.82,ESE,109,0.0,1.0,63,0.00,,,0.00,meteohub,2013-04-29 02:12:00,
2013-04-28 22:17:00,56.7,45.0,29.83,ESE,109,0.0,1.0,65,0.00,,,0.00,meteohub,2013-04-29 02:17:00,
2013-04-28 22:22:00,55.9,45.1,29.83,ESE,109,0.0,0.0,67,0.00,,,0.00,meteohub,2013-04-29 02:22:00,
2013-04-28 22:27:00,55.4,44.6,29.83,ESE,109,0.0,0.0,67,0.00,,,0.00,meteohub,2013-04-29 02:27:00,
2013-04-28 22:32:00,54.9,45.0,29.83,ESE,109,0.0,0.0,69,0.00,,,0.00,meteohub,2013-04-29 02:32:00,
2013-04-28 22:37:00,54.5,45.3,29.83,South,182,0.0,0.0,71,0.00,,,0.00,meteohub,2013-04-29 02:37:00,
2013-04-28 22:42:00,54.5,45.3,29.83,SW,228,0.0,1.0,71,0.00,,,0.00,meteohub,2013-04-29 02:42:00,
2013-04-28 22:47:00,54.5,45.3,29.83,SW,228,0.0,1.0,71,0.00,,,0.00,meteohub,2013-04-29 02:47:00,
2013-04-28 22:52:00,54.0,45.5,29.83,SSE,165,0.0,1.0,73,0.00,,,0.00,meteohub,2013-04-29 02:52:00,
2013-04-28 22:57:00,53.1,44.6,29.83,SSE,165,0.0,1.0,73,0.00,,,0.00,meteohub,2013-04-29 02:57:00,
2013-04-28 23:02:00,52.5,44.8,29.83,SSE,151,0.0,1.0,75,0.00,,,0.00,meteohub,2013-04-29 03:02:00,
2013-04-28 23:07:00,52.2,45.1,29.83,SSE,151,0.0,1.0,77,0.00,,,0.00,meteohub,2013-04-29 03:07:00,
2013-04-28 23:12:00,52.0,45.3,29.82,SSE,151,0.0,1.0,78,0.00,,,0.00,meteohub,2013-04-29 03:12:00,
2013-04-28 23:17:00,52.2,45.9,29.82,ESE,105,0.0,0.0,79,0.00,,,0.00,meteohub,2013-04-29 03:17:00,
2013-04-28 23:22:00,52.3,46.0,29.82,ESE,105,0.0,1.0,79,0.00,,,0.00,meteohub,2013-04-29 03:22:00,
2013-04-28 23:27:00,52.5,45.9,29.82,SE,133,0.0,1.0,78,0.00,,,0.00,meteohub,2013-04-29 03:27:00,
2013-04-28 23:32:00,52.7,46.0,29.82,SSE,151,0.0,2.0,78,0.00,,,0.00,meteohub,2013-04-29 03:32:00,
2013-04-28 23:37:00,52.9,46.2,29.82,ESE,112,0.0,2.0,78,0.00,,,0.00,meteohub,2013-04-29 03:37:00,
2013-04-28 23:42:00,53.2,46.2,29.82,SSW,196,0.0,1.0,77,0.00,,,0.00,meteohub,2013-04-29 03:42:00,
2013-04-28 23:47:00,53.2,46.2,29.82,SSE,164,0.0,2.0,77,0.00,,,0.00,meteohub,2013-04-29 03:47:00,
2013-04-28 23:52:00,53.2,45.9,29.82,SSE,165,0.0,2.0,76,0.00,,,0.00,meteohub,2013-04-29 03:52:00,
2013-04-28 23:57:00,53.4,46.0,29.82,SE,133,1.0,1.0,76,0.00,,,0.00,meteohub,2013-04-29 03:57:00,